Time;durP1;ratioP1;P1;durP2;ratioP2;P2;SDS_P1;SDS_P2;PMS_P1;PMS_P2;Temp;Humidity;BMP_temperature;BMP_pressure;BME280_temperature;BME280_humidity;BME280_pressure;Samples;Min_cycle;Max_cycle;Signal;HPM_P1;HPM_P2
2022/10/01 00:00:55;;;;;;;1.60;1.30;;;12.00;82.50;;;;;;4878334;29;20037;-80
2022/10/01 00:03:23;;;;;;;3.30;1.00;;;11.90;82.60;;;;;;4879769;29;20037;-79
2022/10/01 00:06:09;;;;;;;1.55;1.10;;;11.90;82.70;;;;;;4861231;29;20038;-78
2022/10/01 00:08:38;;;;;;;1.92;1.20;;;11.90;83.00;;;;;;4861339;29;20392;-79
2022/10/01 00:11:11;;;;;;;1.63;1.17;;;11.80;82.90;;;;;;4877888;29;20042;-78
2022/10/01 00:13:37;;;;;;;1.58;1.10;;;11.70;83.10;;;;;;4862173;29;20041;-78
2022/10/01 00:16:07;;;;;;;2.33;1.40;;;11.80;83.30;;;;;;4877948;29;20040;-78
2022/10/01 00:18:36;;;;;;;1.88;1.30;;;11.80;83.50;;;;;;4878301;29;20036;-79
2022/10/01 00:21:08;;;;;;;2.88;1.50;;;11.70;83.60;;;;;;4879609;29;20041;-81
2022/10/01 00:23:34;;;;;;;1.60;1.40;;;11.70;83.60;;;;;;4862686;29;20037;-81
2022/10/01 00:26:10;;;;;;;2.05;1.40;;;11.70;83.70;;;;;;4847919;29;20045;-79
2022/10/01 00:28:36;;;;;;;5.00;1.42;;;11.70;83.90;;;;;;4865608;29;20041;-79
2022/10/01 00:31:02;;;;;;;2.22;1.50;;;11.70;84.00;;;;;;4881133;29;20056;-81
2022/10/01 00:33:27;;;;;;;1.83;1.42;;;11.70;84.10;;;;;;4865064;29;20041;-81
2022/10/01 00:35:56;;;;;;;1.70;1.23;;;11.70;84.20;;;;;;4879731;29;20496;-80
2022/10/01 00:38:21;;;;;;;1.10;1.00;;;11.60;84.20;;;;;;4883113;29;20411;-79
2022/10/01 00:40:47;;;;;;;2.17;1.25;;;11.60;84.30;;;;;;4881422;29;20041;-79
2022/10/01 00:43:24;;;;;;;1.45;1.10;;;11.60;84.40;;;;;;4869583;29;20037;-80
2022/10/01 00:45:53;;;;;;;1.67;1.30;;;11.60;84.50;;;;;;4853658;29;20033;-79
2022/10/01 00:48:22;;;;;;;1.50;1.20;;;11.60;84.60;;;;;;4880073;29;20037;-79
2022/10/01 00:50:49;;;;;;;1.45;1.10;;;11.60;84.70;;;;;;4879121;29;20033;-80
2022/10/01 00:53:17;;;;;;;1.10;1.00;;;11.70;84.80;;;;;;4881190;29;20888;-79
2022/10/01 00:55:50;;;;;;;1.10;0.95;;;11.60;84.80;;;;;;4886350;29;20037;-80
2022/10/01 00:58:18;;;;;;;0.90;0.85;;;11.60;84.90;;;;;;4880274;29;20119;-79
2022/10/01 01:00:44;;;;;;;1.08;0.98;;;11.60;84.90;;;;;;4873520;29;20053;-79
2022/10/01 01:03:11;;;;;;;2.83;1.35;;;11.60;85.00;;;;;;4865908;29;20041;-78
2022/10/01 01:05:38;;;;;;;1.45;1.20;;;11.60;85.10;;;;;;4867772;29;20038;-79
2022/10/01 01:08:06;;;;;;;1.20;1.00;;;11.60;85.10;;;;;;4889089;29;20040;-78
2022/10/01 01:10:50;;;;;;;1.42;1.00;;;11.60;85.10;;;;;;4868072;29;20051;-79
2022/10/01 01:13:23;;;;;;;1.85;1.20;;;11.70;85.30;;;;;;4882217;29;20041;-78
2022/10/01 01:16:08;;;;;;;1.95;1.27;;;11.60;85.30;;;;;;4884833;29;20060;-79
2022/10/01 01:18:41;;;;;;;1.17;1.05;;;11.60;85.50;;;;;;4868116;29;20060;-79
2022/10/01 01:21:38;;;;;;;1.58;1.20;;;11.60;85.50;;;;;;4882710;29;20133;-79
2022/10/01 01:24:28;;;;;;;2.10;1.23;;;11.50;85.60;;;;;;4869204;29;20041;-79
2022/10/01 01:27:22;;;;;;;1.25;1.15;;;11.50;86.30;;;;;;4884500;29;20029;-79
2022/10/01 01:30:00;;;;;;;1.95;1.30;;;11.70;86.00;;;;;;4884012;29;20089;-79
2022/10/01 01:32:33;;;;;;;1.98;1.30;;;11.50;85.90;;;;;;4886262;29;20072;-79
2022/10/01 01:35:03;;;;;;;1.88;1.30;;;11.50;86.00;;;;;;4869958;29;20045;-79
2022/10/01 01:37:35;;;;;;;1.60;1.15;;;11.50;86.20;;;;;;4869726;29;20045;-79
2022/10/01 01:40:02;;;;;;;0.90;0.80;;;11.50;86.20;;;;;;4871686;29;20520;-78
2022/10/01 01:42:36;;;;;;;1.25;1.02;;;11.60;86.40;;;;;;4891207;29;20039;-79
2022/10/01 01:45:04;;;;;;;1.10;1.00;;;11.50;86.40;;;;;;4869965;29;20435;-78
2022/10/01 01:47:32;;;;;;;0.77;0.77;;;11.60;86.50;;;;;;4887276;29;20029;-79
2022/10/01 01:50:01;;;;;;;1.38;1.10;;;11.50;86.50;;;;;;4870475;29;20138;-79
2022/10/01 01:52:28;;;;;;;1.13;1.02;;;11.50;86.60;;;;;;4885411;29;20610;-78
2022/10/01 01:54:55;;;;;;;1.00;0.90;;;11.50;86.70;;;;;;4888630;29;20049;-78
2022/10/01 01:57:21;;;;;;;0.70;0.70;;;11.50;86.70;;;;;;4884319;29;20043;-78
2022/10/01 01:59:47;;;;;;;2.15;0.90;;;11.50;86.70;;;;;;4869818;29;20107;-78
2022/10/01 02:02:32;;;;;;;1.50;1.00;;;11.60;86.80;;;;;;4886755;29;20112;-77
2022/10/01 02:05:02;;;;;;;1.00;0.90;;;11.50;86.80;;;;;;4862588;29;20036;-77
2022/10/01 02:07:44;;;;;;;0.80;0.77;;;11.50;86.80;;;;;;4844165;29;20124;-77
2022/10/01 02:10:28;;;;;;;0.82;0.60;;;11.60;86.80;;;;;;4862882;29;20041;-78
2022/10/01 02:13:21;;;;;;;0.75;0.60;;;11.60;86.80;;;;;;4869704;29;20041;-77
2022/10/01 02:16:17;;;;;;;0.50;0.50;;;11.50;86.90;;;;;;4869309;29;20081;-77
2022/10/01 02:19:01;;;;;;;0.70;0.47;;;11.60;86.90;;;;;;4872618;29;20045;-77
2022/10/01 02:21:34;;;;;;;0.88;0.60;;;11.60;86.90;;;;;;4869748;29;20057;-78
2022/10/01 02:24:08;;;;;;;0.50;0.50;;;11.60;86.90;;;;;;4882986;29;20400;-78
2022/10/01 02:26:36;;;;;;;0.93;0.77;;;11.60;87.00;;;;;;4885927;29;20411;-79
2022/10/01 02:29:08;;;;;;;0.93;0.75;;;11.50;87.00;;;;;;4884248;29;20128;-79
2022/10/01 02:31:34;;;;;;;0.77;0.60;;;11.60;87.20;;;;;;4870025;29;20094;-79
2022/10/01 02:34:03;;;;;;;0.60;0.60;;;11.50;87.10;;;;;;4883297;29;20044;-79
2022/10/01 02:36:32;;;;;;;0.95;0.50;;;11.60;87.20;;;;;;4870912;29;20120;-79
2022/10/01 02:38:59;;;;;;;1.23;0.88;;;11.60;87.30;;;;;;4867579;29;20037;-78
2022/10/01 02:41:30;;;;;;;0.60;0.60;;;11.50;87.30;;;;;;4867302;29;20657;-78
2022/10/01 02:44:01;;;;;;;1.02;0.50;;;11.50;87.40;;;;;;4868370;29;20052;-79
2022/10/01 02:46:41;;;;;;;0.73;0.57;;;11.60;87.40;;;;;;4879254;29;20096;-78
2022/10/01 02:49:07;;;;;;;0.50;0.50;;;11.60;87.50;;;;;;4861728;29;20104;-78
2022/10/01 02:51:43;;;;;;;0.52;0.50;;;11.60;87.50;;;;;;4876615;29;20041;-78
2022/10/01 02:54:15;;;;;;;0.52;0.52;;;11.70;87.60;;;;;;4846966;29;20048;-78
2022/10/01 02:59:21;;;;;;;0.73;0.70;;;11.60;87.60;;;;;;4876541;29;20049;-79
2022/10/01 03:01:47;;;;;;;0.60;0.60;;;11.60;87.70;;;;;;4860393;29;20094;-79
2022/10/01 03:04:13;;;;;;;0.60;0.60;;;11.60;87.90;;;;;;4858413;29;20505;-77
2022/10/01 03:06:38;;;;;;;1.05;0.82;;;11.70;88.00;;;;;;4875706;29;20073;-78
2022/10/01 03:09:07;;;;;;;0.80;0.80;;;11.60;88.00;;;;;;4876894;29;20101;-78
2022/10/01 03:11:33;;;;;;;0.75;0.75;;;11.60;88.10;;;;;;4877133;29;20041;-78
2022/10/01 03:14:00;;;;;;;0.82;0.80;;;11.60;88.20;;;;;;4876781;29;20076;-77
2022/10/01 03:16:26;;;;;;;1.10;0.80;;;11.70;89.00;;;;;;4877090;29;20045;-78
2022/10/01 03:18:51;;;;;;;0.60;0.60;;;11.70;88.40;;;;;;4859496;29;20034;-77
2022/10/01 03:21:17;;;;;;;0.77;0.60;;;11.60;88.40;;;;;;4875913;29;20123;-78
2022/10/01 03:23:43;;;;;;;0.52;0.50;;;11.70;88.50;;;;;;4860337;29;20085;-78
2022/10/01 03:26:09;;;;;;;0.90;0.50;;;11.70;88.60;;;;;;4877224;29;20041;-78
2022/10/01 03:28:37;;;;;;;0.73;0.60;;;11.60;88.60;;;;;;4859918;29;20469;-78
2022/10/01 03:31:05;;;;;;;0.50;0.50;;;11.70;88.60;;;;;;4875080;29;20041;-78
2022/10/01 03:33:30;;;;;;;0.43;0.43;;;11.80;88.80;;;;;;4858329;29;20053;-78
2022/10/01 03:35:56;;;;;;;0.50;0.50;;;11.70;88.80;;;;;;4859778;29;20136;-78
2022/10/01 03:38:22;;;;;;;0.77;0.77;;;11.70;88.80;;;;;;4860048;29;20480;-78
2022/10/01 03:40:48;;;;;;;0.52;0.52;;;11.70;88.90;;;;;;4877319;29;20370;-78
2022/10/01 03:43:14;;;;;;;0.60;0.60;;;11.70;88.90;;;;;;4875341;29;20037;-78
2022/10/01 03:45:39;;;;;;;1.00;0.50;;;11.70;88.90;;;;;;4877071;29;20120;-78
2022/10/01 03:48:05;;;;;;;1.05;0.40;;;11.70;89.00;;;;;;4876498;29;20510;-78
2022/10/01 03:50:31;;;;;;;0.55;0.50;;;11.70;89.00;;;;;;4874974;29;20120;-78
2022/10/01 03:52:57;;;;;;;0.70;0.38;;;11.70;89.00;;;;;;4877052;29;20045;-79
2022/10/01 03:55:24;;;;;;;0.40;0.40;;;11.70;89.70;;;;;;4859781;29;20037;-78
2022/10/01 03:57:50;;;;;;;0.80;0.30;;;11.70;89.10;;;;;;4875291;29;20033;-78
2022/10/01 04:00:17;;;;;;;0.43;0.43;;;11.80;89.20;;;;;;4875156;29;20045;-78
2022/10/01 04:02:43;;;;;;;0.50;0.50;;;11.70;89.20;;;;;;4860162;29;20049;-78
2022/10/01 04:05:09;;;;;;;0.40;0.40;;;11.80;89.20;;;;;;4859947;29;20029;-79
2022/10/01 04:07:34;;;;;;;0.45;0.45;;;11.80;89.20;;;;;;4859875;29;20044;-78
2022/10/01 04:10:00;;;;;;;0.47;0.47;;;11.80;89.20;;;;;;4877006;29;20087;-78
2022/10/01 04:12:26;;;;;;;0.40;0.40;;;11.90;89.30;;;;;;4880394;29;20069;-77
2022/10/01 04:14:52;;;;;;;0.75;0.30;;;11.90;89.30;;;;;;4878703;29;20076;-78
2022/10/01 04:17:19;;;;;;;0.60;0.38;;;11.90;89.30;;;;;;4863135;29;20092;-78
2022/10/01 04:19:44;;;;;;;0.22;0.22;;;11.90;89.30;;;;;;4878534;29;20076;-79
2022/10/01 04:22:10;;;;;;;0.65;0.35;;;11.90;89.40;;;;;;4880282;29;20068;-79
2022/10/01 04:24:36;;;;;;;0.30;0.30;;;11.90;89.40;;;;;;4877941;29;20080;-80
2022/10/01 04:27:02;;;;;;;0.28;0.28;;;11.90;89.30;;;;;;4878909;29;20113;-78
2022/10/01 04:29:28;;;;;;;0.32;0.32;;;12.00;89.40;;;;;;4878171;29;20100;-79
2022/10/01 04:31:53;;;;;;;0.20;0.20;;;12.00;89.40;;;;;;4862712;29;20087;-78
2022/10/01 04:34:51;;;;;;;0.50;0.40;;;12.00;89.40;;;;;;4878404;29;20101;-78
2022/10/01 04:37:05;;;;;;;0.30;0.20;;;12.10;89.40;;;;;;4879384;29;20056;-80
2022/10/01 04:39:31;;;;;;;0.30;0.30;;;12.10;89.40;;;;;;4878282;29;20053;-79
2022/10/01 04:41:56;;;;;;;0.30;0.30;;;12.00;89.30;;;;;;4862613;29;20103;-79
2022/10/01 04:44:22;;;;;;;0.30;0.30;;;12.10;89.40;;;;;;4879286;29;20049;-78
2022/10/01 04:46:48;;;;;;;0.30;0.30;;;12.10;89.40;;;;;;4878290;29;20673;-79
2022/10/01 04:49:14;;;;;;;0.60;0.50;;;12.10;89.40;;;;;;4863197;29;20045;-78
2022/10/01 04:51:39;;;;;;;0.30;0.30;;;12.10;89.40;;;;;;4879867;29;20044;-77
2022/10/01 04:54:05;;;;;;;0.60;0.43;;;12.20;89.40;;;;;;4878235;29;20037;-78
2022/10/01 04:56:31;;;;;;;1.17;0.40;;;12.20;89.40;;;;;;4879085;29;20116;-78
2022/10/01 04:58:57;;;;;;;0.30;0.30;;;12.20;89.50;;;;;;4879374;29;20036;-78
2022/10/01 05:01:22;;;;;;;0.30;0.30;;;12.20;89.50;;;;;;4879053;29;20493;-78
2022/10/01 05:03:48;;;;;;;0.50;0.40;;;12.20;89.50;;;;;;4861240;29;20160;-77
2022/10/01 05:06:14;;;;;;;0.30;0.30;;;12.30;89.60;;;;;;4862446;29;20042;-78
2022/10/01 05:08:40;;;;;;;0.38;0.38;;;12.30;89.50;;;;;;4862367;29;20053;-78
2022/10/01 05:11:05;;;;;;;0.45;0.35;;;12.30;89.50;;;;;;4878243;29;20041;-79
2022/10/01 05:13:31;;;;;;;0.30;0.30;;;12.30;89.50;;;;;;4878114;29;20052;-78
2022/10/01 05:15:57;;;;;;;0.82;0.20;;;12.30;89.50;;;;;;4877775;29;20041;-78
2022/10/01 05:18:23;;;;;;;0.30;0.30;;;12.40;89.60;;;;;;4877648;29;20045;-78
2022/10/01 05:20:49;;;;;;;0.30;0.30;;;12.30;89.60;;;;;;4878166;29;20052;-79
2022/10/01 05:23:15;;;;;;;0.30;0.30;;;12.40;89.60;;;;;;4877669;29;20045;-81
2022/10/01 05:25:41;;;;;;;0.38;0.22;;;12.50;89.60;;;;;;4862185;29;20051;-80
2022/10/01 05:28:07;;;;;;;0.20;0.20;;;12.40;89.60;;;;;;4877968;29;20140;-79
2022/10/01 05:30:33;;;;;;;0.30;0.30;;;12.40;89.60;;;;;;4878557;29;20037;-79
2022/10/01 05:33:01;;;;;;;0.30;0.30;;;12.40;89.60;;;;;;4861790;29;20888;-80
2022/10/01 05:35:27;;;;;;;0.20;0.20;;;12.50;89.70;;;;;;4862306;29;20160;-79
2022/10/01 05:37:54;;;;;;;0.35;0.35;;;12.50;89.80;;;;;;4877287;29;20872;-78
2022/10/01 05:40:20;;;;;;;0.30;0.30;;;12.50;89.80;;;;;;4878572;29;20055;-79
2022/10/01 05:42:47;;;;;;;0.40;0.40;;;12.50;89.80;;;;;;4879212;29;20472;-78
2022/10/01 05:45:12;;;;;;;0.20;0.20;;;12.50;89.80;;;;;;4861909;29;20044;-81
2022/10/01 05:47:41;;;;;;;0.20;0.20;;;12.50;89.80;;;;;;4861800;29;20034;-80
2022/10/01 05:50:08;;;;;;;0.28;0.28;;;12.50;89.80;;;;;;4861880;29;20498;-81
2022/10/01 05:52:33;;;;;;;0.30;0.30;;;12.50;89.80;;;;;;4861995;29;20041;-80
2022/10/01 05:54:59;;;;;;;0.35;0.35;;;12.60;89.90;;;;;;4859823;29;20104;-80
2022/10/01 05:57:25;;;;;;;0.30;0.30;;;12.50;89.90;;;;;;4861374;29;20136;-80
2022/10/01 05:59:50;;;;;;;0.30;0.30;;;12.60;90.00;;;;;;4878743;29;20488;-80
2022/10/01 06:02:16;;;;;;;0.28;0.28;;;12.60;90.00;;;;;;4861456;29;20396;-79
2022/10/01 06:04:42;;;;;;;0.35;0.30;;;12.60;90.00;;;;;;4878687;29;20484;-79
2022/10/01 06:07:08;;;;;;;0.40;0.40;;;12.60;90.10;;;;;;4859971;29;20067;-78
2022/10/01 06:09:33;;;;;;;0.40;0.40;;;12.60;90.00;;;;;;4861729;29;20109;-80
2022/10/01 06:11:59;;;;;;;0.38;0.38;;;12.70;90.00;;;;;;4877219;29;20041;-79
2022/10/01 06:14:26;;;;;;;0.40;0.38;;;12.70;90.00;;;;;;4861215;29;20113;-78
2022/10/01 06:16:53;;;;;;;0.30;0.30;;;12.70;90.00;;;;;;4861228;29;20033;-78
2022/10/01 06:19:19;;;;;;;0.85;0.30;;;12.60;90.00;;;;;;4861575;29;20053;-78
2022/10/01 06:21:44;;;;;;;0.40;0.40;;;12.70;90.00;;;;;;4878444;29;20110;-79
2022/10/01 06:24:10;;;;;;;0.40;0.40;;;12.70;90.00;;;;;;4876489;29;20132;-78
2022/10/01 06:26:36;;;;;;;0.30;0.30;;;12.80;90.00;;;;;;4859252;29;20044;-78
2022/10/01 06:29:02;;;;;;;0.38;0.38;;;12.80;90.00;;;;;;4877716;29;20045;-78
2022/10/01 06:31:28;;;;;;;0.40;0.40;;;12.70;90.00;;;;;;4860229;29;20033;-78
2022/10/01 06:33:54;;;;;;;0.32;0.32;;;12.80;90.10;;;;;;4876603;29;20037;-79
2022/10/01 06:36:20;;;;;;;0.40;0.40;;;12.80;90.10;;;;;;4878005;29;20440;-78
2022/10/01 06:38:48;;;;;;;0.55;0.50;;;12.80;90.10;;;;;;4876911;29;20435;-79
2022/10/01 06:41:13;;;;;;;0.38;0.35;;;12.90;90.10;;;;;;4860995;29;20045;-79
2022/10/01 06:43:39;;;;;;;0.50;0.50;;;12.90;90.10;;;;;;4878060;29;20029;-79
2022/10/01 06:46:05;;;;;;;0.50;0.50;;;12.90;90.10;;;;;;4877442;29;20029;-78
2022/10/01 06:48:31;;;;;;;0.50;0.50;;;13.00;90.00;;;;;;4860605;29;20117;-79
2022/10/01 06:50:57;;;;;;;0.57;0.57;;;12.90;90.00;;;;;;4876272;29;20044;-78
2022/10/01 06:53:23;;;;;;;0.65;0.63;;;13.00;90.00;;;;;;4859500;29;20048;-78
2022/10/01 06:55:49;;;;;;;0.60;0.60;;;13.00;90.00;;;;;;4878005;29;20037;-78
2022/10/01 06:58:17;;;;;;;0.70;0.70;;;13.10;90.00;;;;;;4878191;29;20400;-78
2022/10/01 07:00:44;;;;;;;0.50;0.50;;;13.10;90.00;;;;;;4878047;29;20045;-79
2022/10/01 07:03:19;;;;;;;0.60;0.50;;;13.10;90.00;;;;;;4877777;29;20044;-78
2022/10/01 07:05:45;;;;;;;0.70;0.70;;;13.20;90.00;;;;;;4845829;29;20037;-78
2022/10/01 07:08:11;;;;;;;0.70;0.70;;;13.20;90.00;;;;;;4860453;29;20037;-78
2022/10/01 07:10:38;;;;;;;0.90;0.90;;;13.20;90.00;;;;;;4876425;29;20094;-78
2022/10/01 07:13:10;;;;;;;0.50;0.50;;;13.30;90.00;;;;;;4877504;29;20041;-78
2022/10/01 07:15:36;;;;;;;0.75;0.75;;;13.30;90.00;;;;;;4876143;29;20041;-79
2022/10/01 07:18:03;;;;;;;0.93;0.80;;;13.30;90.00;;;;;;4860341;29;20136;-78
2022/10/01 07:20:32;;;;;;;0.60;0.60;;;13.40;90.00;;;;;;4876007;29;20116;-78
2022/10/01 07:22:58;;;;;;;0.65;0.65;;;13.40;90.00;;;;;;4861148;29;20033;-78
2022/10/01 07:25:25;;;;;;;1.17;0.90;;;13.40;90.00;;;;;;4877148;29;20038;-78
2022/10/01 07:27:56;;;;;;;1.05;0.95;;;13.50;90.00;;;;;;4877629;29;20119;-78
2022/10/01 07:30:22;;;;;;;1.13;0.98;;;13.60;89.90;;;;;;4875576;29;20049;-78
2022/10/01 07:32:48;;;;;;;1.20;0.90;;;13.60;89.80;;;;;;4877021;29;20277;-77
2022/10/01 07:35:15;;;;;;;1.40;1.20;;;13.60;89.70;;;;;;4877308;29;20120;-78
2022/10/01 07:37:41;;;;;;;1.88;0.90;;;13.70;89.70;;;;;;4877062;29;20041;-78
2022/10/01 07:40:07;;;;;;;1.75;1.20;;;13.70;89.70;;;;;;4875365;29;20214;-78
2022/10/01 07:42:34;;;;;;;0.85;0.85;;;13.90;89.80;;;;;;4875974;29;20033;-78
2022/10/01 07:45:03;;;;;;;1.20;0.88;;;13.80;89.70;;;;;;4879199;29;20120;-77
2022/10/01 07:47:29;;;;;;;2.03;1.10;;;13.80;89.60;;;;;;4880100;29;20037;-77
2022/10/01 07:49:54;;;;;;;2.42;1.10;;;13.90;89.70;;;;;;4878826;29;20068;-78
2022/10/01 07:52:20;;;;;;;1.20;1.10;;;14.00;89.70;;;;;;4862894;29;20053;-78
2022/10/01 07:54:47;;;;;;;1.40;1.30;;;13.90;89.60;;;;;;4863390;29;20037;-78
2022/10/01 07:57:13;;;;;;;1.73;1.40;;;14.00;89.70;;;;;;4880777;29;20048;-77
2022/10/01 07:59:39;;;;;;;1.92;1.60;;;14.10;89.70;;;;;;4878904;29;20125;-77
2022/10/01 08:02:14;;;;;;;1.75;1.25;;;14.10;89.70;;;;;;4879015;29;20053;-78
2022/10/01 08:07:25;;;;;;;1.30;1.20;;;14.30;89.60;;;;;;4879968;29;20493;-77
2022/10/01 08:09:50;;;;;;;1.25;1.13;;;14.30;89.40;;;;;;4880437;29;20064;-77
2022/10/01 08:12:18;;;;;;;2.63;1.10;;;14.40;89.40;;;;;;4879840;29;20041;-77
2022/10/01 08:14:46;;;;;;;1.35;1.20;;;14.40;89.30;;;;;;4880033;29;20033;-77
2022/10/01 08:17:12;;;;;;;1.10;1.00;;;14.50;89.40;;;;;;4878338;29;20045;-77
2022/10/01 08:19:39;;;;;;;2.08;1.13;;;14.50;89.40;;;;;;4879621;29;20500;-78
2022/10/01 08:22:06;;;;;;;1.40;1.30;;;14.50;89.40;;;;;;4880127;29;20060;-79
2022/10/01 08:24:33;;;;;;;1.35;1.25;;;14.60;89.50;;;;;;4880112;29;20452;-79
2022/10/01 08:26:59;;;;;;;1.33;1.02;;;14.60;89.60;;;;;;4879937;29;20420;-79
2022/10/01 08:29:25;;;;;;;2.45;1.13;;;14.50;89.70;;;;;;4879321;29;20049;-79
2022/10/01 08:31:51;;;;;;;1.20;1.10;;;14.60;89.90;;;;;;4878714;29;20036;-79
2022/10/01 08:34:17;;;;;;;1.48;1.38;;;14.60;89.70;;;;;;4878455;29;20045;-79
2022/10/01 08:36:43;;;;;;;1.38;1.27;;;14.60;89.60;;;;;;4879760;29;20041;-78
2022/10/01 08:39:11;;;;;;;1.65;1.40;;;14.70;89.70;;;;;;4879542;29;20101;-79
2022/10/01 08:41:58;;;;;;;1.30;1.20;;;14.70;89.80;;;;;;4879765;29;20029;-79
2022/10/01 08:44:36;;;;;;;1.20;1.10;;;14.60;90.00;;;;;;4878662;29;20040;-79
2022/10/01 08:47:11;;;;;;;1.92;1.60;;;14.70;90.00;;;;;;4879514;29;20543;-78
2022/10/01 08:49:44;;;;;;;1.48;1.38;;;14.60;90.00;;;;;;4879935;29;20124;-78
2022/10/01 08:52:29;;;;;;;1.50;1.40;;;14.60;90.00;;;;;;4879650;29;20116;-78
2022/10/01 08:55:00;;;;;;;1.98;1.52;;;14.70;90.10;;;;;;4879333;29;20033;-78
2022/10/01 08:57:33;;;;;;;;;;;14.70;90.10;;;;;;4847070;29;20561;-77
2022/10/01 09:00:05;;;;;;;1.70;1.33;;;14.70;90.00;;;;;;4862409;29;19920;-78
2022/10/01 09:02:34;;;;;;;2.00;1.48;;;14.80;90.00;;;;;;4847434;29;20112;-78
2022/10/01 09:05:23;;;;;;;2.03;1.58;;;14.90;89.90;;;;;;4879258;29;20041;-77
2022/10/01 09:08:18;;;;;;;2.72;1.58;;;14.90;89.60;;;;;;4879306;29;20046;-79
2022/10/01 09:10:51;;;;;;;1.80;1.50;;;15.00;89.50;;;;;;4878770;29;20119;-78
2022/10/01 09:13:38;;;;;;;1.45;1.25;;;15.00;89.50;;;;;;4879461;29;20607;-79
2022/10/01 09:16:28;;;;;;;1.08;1.02;;;15.00;89.80;;;;;;4847791;29;20049;-78
2022/10/01 09:19:30;;;;;;;1.02;0.93;;;14.90;89.90;;;;;;4878792;29;20033;-78
2022/10/01 09:22:04;;;;;;;1.27;1.17;;;15.00;90.00;;;;;;4878652;29;20053;-78
2022/10/01 09:24:45;;;;;;;1.20;1.08;;;15.20;90.00;;;;;;4848801;29;20053;-78
2022/10/01 09:27:16;;;;;;;1.20;1.10;;;15.30;89.70;;;;;;4878147;29;20132;-78
2022/10/01 09:29:50;;;;;;;1.17;0.93;;;15.30;89.50;;;;;;4878828;29;20029;-79
2022/10/01 09:32:21;;;;;;;0.93;0.90;;;15.20;89.50;;;;;;4878779;29;20072;-78
2022/10/01 09:34:47;;;;;;;1.15;0.90;;;15.20;89.60;;;;;;4878735;29;20094;-78
2022/10/01 09:37:24;;;;;;;0.60;0.60;;;15.20;89.80;;;;;;4877845;29;20051;-79
2022/10/01 09:40:27;;;;;;;1.02;0.88;;;15.20;90.00;;;;;;4863334;29;20075;-80
2022/10/01 09:42:53;;;;;;;1.38;0.60;;;15.10;90.00;;;;;;4879104;29;20045;-78
2022/10/01 09:45:21;;;;;;;0.90;0.60;;;15.20;90.10;;;;;;4861993;29;20052;-79
2022/10/01 09:47:52;;;;;;;1.30;0.70;;;15.30;90.20;;;;;;4878526;29;20048;-77
2022/10/01 09:50:33;;;;;;;0.45;0.45;;;15.30;90.00;;;;;;4860513;29;20480;-78
2022/10/01 09:52:59;;;;;;;;;;;15.30;90.00;;;;;;4878539;29;20045;-78
2022/10/01 09:55:33;;;;;;;0.57;0.40;;;15.30;89.90;;;;;;4862644;29;19923;-78
2022/10/01 09:58:06;;;;;;;1.33;0.60;;;15.30;90.00;;;;;;4877394;29;20126;-77
2022/10/01 10:00:32;;;;;;;1.15;0.50;;;15.20;90.00;;;;;;4846441;29;20524;-78
2022/10/01 10:02:59;;;;;;;0.55;0.40;;;15.20;90.10;;;;;;4878276;29;20036;-77
2022/10/01 10:05:27;;;;;;;0.65;0.30;;;15.20;90.10;;;;;;4878885;29;20515;-78
2022/10/01 10:07:59;;;;;;;0.60;0.30;;;15.10;90.20;;;;;;4877892;29;20101;-78
2022/10/01 10:10:29;;;;;;;0.52;0.30;;;15.10;90.20;;;;;;4861766;29;20037;-78
2022/10/01 10:13:01;;;;;;;0.60;0.50;;;15.10;90.20;;;;;;4878727;29;20484;-78
2022/10/01 10:15:30;;;;;;;0.30;0.30;;;15.10;90.20;;;;;;4878530;29;20124;-78
2022/10/01 10:18:06;;;;;;;0.93;0.38;;;15.10;90.20;;;;;;4878472;29;20044;-78
2022/10/01 10:20:38;;;;;;;0.32;0.32;;;15.10;90.20;;;;;;4861749;29;20051;-78
2022/10/01 10:23:15;;;;;;;0.73;0.38;;;15.20;90.20;;;;;;4878171;29;20033;-78
2022/10/01 10:25:41;;;;;;;2.38;0.50;;;15.10;90.10;;;;;;4878569;29;20403;-77
2022/10/01 10:28:22;;;;;;;2.40;0.60;;;15.30;90.10;;;;;;4878132;29;20077;-77
2022/10/01 10:30:51;;;;;;;1.13;0.50;;;15.30;90.00;;;;;;4876724;29;20071;-75
2022/10/01 10:33:19;;;;;;;1.58;0.60;;;15.40;90.00;;;;;;4878161;29;20044;-78
2022/10/01 10:35:45;;;;;;;1.65;0.40;;;15.50;90.00;;;;;;4876530;29;20041;-77
2022/10/01 10:38:17;;;;;;;1.85;0.50;;;15.60;89.80;;;;;;4877733;29;20116;-78
2022/10/01 10:40:44;;;;;;;1.25;0.40;;;15.70;89.60;;;;;;4878277;29;20056;-78
2022/10/01 10:43:19;;;;;;;1.90;0.50;;;15.80;89.30;;;;;;4877889;29;20040;-77
2022/10/01 10:45:46;;;;;;;0.73;0.40;;;15.90;89.00;;;;;;4877862;29;20033;-78
2022/10/01 10:48:16;;;;;;;1.35;0.50;;;16.10;88.90;;;;;;4878131;29;22148;-78
2022/10/01 10:50:45;;;;;;;0.57;0.30;;;16.20;88.60;;;;;;4877798;29;20760;-78
2022/10/01 10:53:23;;;;;;;0.52;0.30;;;16.30;88.40;;;;;;4878014;29;20041;-77
2022/10/01 10:56:00;;;;;;;2.55;0.50;;;16.40;88.30;;;;;;4877833;29;20033;-77
2022/10/01 10:58:30;;;;;;;1.38;0.70;;;16.40;88.20;;;;;;4877461;29;20048;-78
2022/10/01 11:01:00;;;;;;;2.73;0.67;;;16.50;88.10;;;;;;4876232;29;20049;-77
2022/10/01 11:03:31;;;;;;;1.70;0.50;;;16.60;88.10;;;;;;4877885;29;20096;-77
2022/10/01 11:06:08;;;;;;;1.10;0.40;;;16.70;88.00;;;;;;4876228;29;20044;-77
2022/10/01 11:08:34;;;;;;;1.70;0.30;;;16.80;87.60;;;;;;4877751;29;20044;-75
2022/10/01 11:11:32;;;;;;;0.40;0.30;;;16.90;87.40;;;;;;4876212;29;20137;-77
2022/10/01 11:14:33;;;;;;;0.98;0.52;;;17.00;87.10;;;;;;4877677;29;20148;-78
2022/10/01 11:17:39;;;;;;;0.83;0.43;;;17.10;86.80;;;;;;4877959;29;20057;-78
2022/10/01 11:20:33;;;;;;;2.05;0.55;;;16.90;86.50;;;;;;4876446;29;20518;-77
2022/10/01 11:23:16;;;;;;;0.57;0.30;;;16.50;87.40;;;;;;4883374;29;20052;-77
2022/10/01 11:26:02;;;;;;;1.23;0.35;;;16.20;88.30;;;;;;4883609;29;20037;-77
2022/10/01 11:28:51;;;;;;;0.70;0.35;;;16.10;88.90;;;;;;4851475;29;20519;-78
2022/10/01 11:31:42;;;;;;;1.25;0.40;;;16.10;89.20;;;;;;4882444;29;20503;-77
2022/10/01 11:34:36;;;;;;;1.10;0.43;;;16.00;89.30;;;;;;4883656;29;20055;-75
2022/10/01 11:37:23;;;;;;;0.75;0.47;;;16.10;89.30;;;;;;4883156;29;20049;-78
2022/10/01 11:39:54;;;;;;;1.75;0.32;;;16.10;89.20;;;;;;4883101;29;20053;-77
2022/10/01 11:42:26;;;;;;;0.50;0.32;;;16.20;89.10;;;;;;4866551;29;20041;-76
2022/10/01 11:45:13;;;;;;;0.57;0.30;;;16.20;88.90;;;;;;4883506;29;20037;-77
2022/10/01 11:47:46;;;;;;;1.17;0.43;;;16.20;88.70;;;;;;4883256;29;20570;-77
2022/10/01 11:50:34;;;;;;;0.90;0.40;;;16.40;88.50;;;;;;4882021;29;20488;-77
2022/10/01 11:53:10;;;;;;;2.50;0.60;;;16.50;88.40;;;;;;4866301;29;20045;-77
2022/10/01 12:01:45;;;;;;;1.83;0.40;;;16.50;87.40;;;;;;4881198;29;20140;-77
2022/10/01 12:04:32;;;;;;;1.40;0.60;;;16.50;87.40;;;;;;4883028;29;20067;-77
2022/10/01 12:07:22;;;;;;;0.50;0.40;;;16.60;87.60;;;;;;4866045;29;20041;-78
2022/10/01 12:10:16;;;;;;;2.55;0.70;;;16.50;87.40;;;;;;4866019;29;20080;-77
2022/10/01 12:12:51;;;;;;;2.35;0.68;;;16.60;87.20;;;;;;4882832;29;20563;-77
2022/10/01 12:15:30;;;;;;;1.45;0.63;;;16.70;86.80;;;;;;4882619;29;20154;-77
2022/10/01 12:18:12;;;;;;;1.75;0.55;;;16.80;86.50;;;;;;4850701;29;20069;-78
2022/10/01 12:20:48;;;;;;;2.08;0.50;;;16.90;86.30;;;;;;4882838;29;20042;-77
2022/10/01 12:23:20;;;;;;;2.33;0.75;;;16.90;85.90;;;;;;4883163;29;20488;-74
2022/10/01 12:26:05;;;;;;;2.05;0.70;;;16.90;85.80;;;;;;4865995;29;20060;-74
2022/10/01 12:28:48;;;;;;;2.15;0.75;;;16.90;85.70;;;;;;4882812;29;20081;-73
2022/10/01 12:31:21;;;;;;;0.98;0.50;;;16.70;85.50;;;;;;4878950;29;20032;-74
2022/10/01 12:34:01;;;;;;;0.98;0.70;;;16.70;85.90;;;;;;4880115;29;20072;-73
2022/10/01 12:36:57;;;;;;;1.48;0.63;;;16.60;85.70;;;;;;4880001;29;20373;-77
2022/10/01 12:39:42;;;;;;;2.65;0.90;;;17.00;85.70;;;;;;4878618;29;20055;-76
2022/10/01 12:42:24;;;;;;;3.17;0.85;;;17.10;85.00;;;;;;4879626;29;20041;-74
2022/10/01 12:45:05;;;;;;;1.17;0.45;;;17.20;84.30;;;;;;4878259;29;20036;-73
2022/10/01 12:47:37;;;;;;;;;;;17.20;84.30;;;;;;4879615;29;20124;-73
2022/10/01 12:50:27;;;;;;;2.30;0.60;;;17.20;84.20;;;;;;4879260;29;19915;-73
2022/10/01 12:53:28;;;;;;;1.95;0.55;;;17.00;84.00;;;;;;4879318;29;20496;-76
2022/10/01 12:56:15;;;;;;;1.05;0.55;;;16.90;84.60;;;;;;4878987;29;20052;-73
2022/10/01 12:59:06;;;;;;;1.95;0.50;;;16.70;84.60;;;;;;4879680;29;20049;-73
2022/10/01 13:01:44;;;;;;;;;;;16.50;84.90;;;;;;4863399;29;20045;-74
2022/10/01 13:04:39;;;;;;;1.13;0.47;;;16.50;85.10;;;;;;4879343;29;20371;-75
2022/10/01 13:07:39;;;;;;;2.78;0.95;;;16.40;85.40;;;;;;4879083;29;20041;-73
2022/10/01 13:10:33;;;;;;;1.67;0.47;;;16.40;85.40;;;;;;4878922;29;20041;-74
2022/10/01 13:13:20;;;;;;;1.33;0.47;;;16.40;85.40;;;;;;4878786;29;20045;-74
2022/10/01 13:15:50;;;;;;;1.00;0.50;;;16.50;85.70;;;;;;4879358;29;20136;-73
2022/10/01 13:18:39;;;;;;;1.17;0.50;;;16.60;84.90;;;;;;4879711;29;20073;-75
2022/10/01 13:21:19;;;;;;;0.82;0.43;;;16.70;84.50;;;;;;4877772;29;20101;-78
2022/10/01 13:23:56;;;;;;;1.92;0.40;;;16.90;84.20;;;;;;4879171;29;20530;-74